Time;durP1;ratioP1;P1;durP2;ratioP2;P2;SDS_P1;SDS_P2;PMS_P1;PMS_P2;Temp;Humidity;BMP_temperature;BMP_pressure;BME280_temperature;BME280_humidity;BME280_pressure;Samples;Min_cycle;Max_cycle;Signal;HPM_P1;HPM_P2
2022/02/13 00:02:02;;;;;;;13.23;6.55;;;;;;;;;;6244343;23;20003;-74
2022/02/13 00:04:28;;;;;;;13.73;6.55;;;;;;;;;;6244401;23;19996;-74
2022/02/13 00:06:53;;;;;;;15.90;6.80;;;;;;;;;;6244282;23;19992;-73
2022/02/13 00:09:18;;;;;;;14.68;7.47;;;;;;;;;;6244419;23;20054;-74
2022/02/13 00:11:43;;;;;;;13.00;6.45;;;;;;;;;;6244307;23;20054;-74
2022/02/13 00:14:08;;;;;;;11.90;6.63;;;;;;;;;;6244616;23;20004;-73
2022/02/13 00:16:36;;;;;;;13.98;6.43;;;;;;;;;;6217695;23;20123;-73
2022/02/13 00:19:01;;;;;;;14.30;6.70;;;;;;;;;;6244368;23;20003;-74
2022/02/13 00:21:26;;;;;;;10.55;5.88;;;;;;;;;;6244949;23;19996;-74
2022/02/13 00:23:51;;;;;;;16.48;5.93;;;;;;;;;;6246315;23;20317;-74
2022/02/13 00:26:16;;;;;;;10.40;5.80;;;;;;;;;;6219548;23;20476;-73
2022/02/13 00:28:42;;;;;;;13.15;5.82;;;;;;;;;;6219881;23;19996;-74
2022/02/13 00:31:07;;;;;;;11.52;5.45;;;;;;;;;;6246249;23;20008;-74
2022/02/13 00:33:34;;;;;;;13.43;5.45;;;;;;;;;;6246185;23;20418;-74
2022/02/13 00:36:00;;;;;;;12.27;5.68;;;;;;;;;;6246287;23;20074;-74
2022/02/13 00:38:25;;;;;;;11.85;5.38;;;;;;;;;;6246262;23;20353;-74
2022/02/13 00:40:50;;;;;;;13.07;6.10;;;;;;;;;;6219341;23;20365;-73
2022/02/13 00:43:15;;;;;;;10.43;5.18;;;;;;;;;;6219137;23;19999;-73
2022/02/13 00:45:40;;;;;;;15.57;6.63;;;;;;;;;;6246260;23;20083;-74
2022/02/13 00:48:10;;;;;;;13.25;6.25;;;;;;;;;;6219476;23;20000;-73
2022/02/13 00:50:35;;;;;;;10.15;5.15;;;;;;;;;;6246385;23;20004;-74
2022/02/13 00:53:00;;;;;;;15.50;6.15;;;;;;;;;;6246898;23;19993;-73
2022/02/13 00:55:25;;;;;;;19.33;7.45;;;;;;;;;;6220421;23;20043;-73
2022/02/13 00:57:50;;;;;;;14.40;6.43;;;;;;;;;;6219330;23;20452;-74
2022/02/13 01:00:16;;;;;;;12.90;6.13;;;;;;;;;;6220516;23;20075;-74
2022/02/13 01:02:41;;;;;;;13.40;5.95;;;;;;;;;;6219895;23;20000;-73
2022/02/13 01:05:06;;;;;;;13.73;5.88;;;;;;;;;;6246034;23;20007;-74
2022/02/13 01:07:32;;;;;;;10.25;5.65;;;;;;;;;;6245915;23;20073;-74
2022/02/13 01:09:57;;;;;;;13.23;5.80;;;;;;;;;;6219027;23;19996;-73
2022/02/13 01:12:22;;;;;;;17.65;6.13;;;;;;;;;;6245788;23;20390;-73
2022/02/13 01:14:47;;;;;;;12.15;5.68;;;;;;;;;;6245849;23;20441;-73
2022/02/13 01:17:12;;;;;;;13.13;5.53;;;;;;;;;;6219103;23;20003;-73
2022/02/13 01:19:37;;;;;;;9.25;5.10;;;;;;;;;;6245805;23;19992;-73
2022/02/13 01:22:04;;;;;;;12.77;5.13;;;;;;;;;;6245842;23;20020;-73
2022/02/13 01:24:30;;;;;;;11.25;5.00;;;;;;;;;;6246059;23;20019;-73
2022/02/13 01:26:55;;;;;;;11.70;5.25;;;;;;;;;;6246214;23;19996;-73
2022/02/13 01:29:21;;;;;;;13.38;4.94;;;;;;;;;;6245848;23;20028;-73
2022/02/13 01:31:46;;;;;;;10.80;4.65;;;;;;;;;;6245537;23;19996;-74
2022/02/13 01:34:11;;;;;;;8.65;5.28;;;;;;;;;;6218352;23;20076;-73
2022/02/13 01:36:37;;;;;;;12.27;5.40;;;;;;;;;;6245748;23;20004;-72
2022/02/13 01:39:02;;;;;;;8.52;4.80;;;;;;;;;;6245629;23;19997;-74
2022/02/13 01:41:27;;;;;;;12.73;4.50;;;;;;;;;;6218660;23;20004;-72
2022/02/13 01:43:56;;;;;;;10.40;4.65;;;;;;;;;;6245447;23;20003;-74
2022/02/13 01:46:21;;;;;;;;;;;;;;;;;;6246471;23;20000;-74
2022/02/13 01:48:47;;;;;;;11.68;4.93;;;;;;;;;;6245572;23;19899;-74
2022/02/13 01:51:12;;;;;;;12.05;4.70;;;;;;;;;;6218408;23;20229;-74
2022/02/13 01:53:37;;;;;;;10.52;4.93;;;;;;;;;;6245380;23;20319;-74
2022/02/13 01:56:02;;;;;;;12.95;5.18;;;;;;;;;;6218712;23;20004;-74
2022/02/13 01:58:28;;;;;;;9.75;4.43;;;;;;;;;;6245711;23;20070;-73
2022/02/13 02:00:53;;;;;;;11.65;4.55;;;;;;;;;;6247087;23;19999;-73
2022/02/13 02:03:19;;;;;;;10.07;4.63;;;;;;;;;;6246137;23;20003;-73
2022/02/13 02:05:44;;;;;;;10.48;4.88;;;;;;;;;;6246009;23;19988;-73
2022/02/13 02:08:09;;;;;;;10.35;5.10;;;;;;;;;;6218621;23;20011;-73
2022/02/13 02:10:35;;;;;;;10.85;4.53;;;;;;;;;;6245318;23;20000;-73
2022/02/13 02:13:00;;;;;;;9.35;4.70;;;;;;;;;;6245523;23;20000;-73
2022/02/13 02:15:25;;;;;;;7.35;4.10;;;;;;;;;;6245435;23;20047;-73
2022/02/13 02:17:51;;;;;;;13.80;4.95;;;;;;;;;;6218386;23;20007;-73
2022/02/13 02:20:18;;;;;;;13.05;4.95;;;;;;;;;;6245281;23;20076;-74
2022/02/13 02:22:48;;;;;;;8.00;4.30;;;;;;;;;;6193694;23;20025;-74
2022/02/13 02:25:13;;;;;;;8.40;4.20;;;;;;;;;;6245211;23;19996;-73
2022/02/13 02:27:38;;;;;;;9.23;4.35;;;;;;;;;;6245217;23;20349;-73
2022/02/13 02:30:04;;;;;;;10.12;4.46;;;;;;;;;;6245197;23;20333;-74
2022/02/13 02:32:29;;;;;;;11.30;4.05;;;;;;;;;;6244972;23;20046;-73
2022/02/13 02:34:54;;;;;;;9.48;4.43;;;;;;;;;;6244970;23;20000;-73
2022/02/13 02:37:20;;;;;;;13.40;3.88;;;;;;;;;;6244985;23;20053;-74
2022/02/13 02:39:45;;;;;;;6.93;3.67;;;;;;;;;;6245011;23;20441;-73
2022/02/13 02:42:13;;;;;;;8.45;3.92;;;;;;;;;;6218007;23;20418;-73
2022/02/13 02:44:38;;;;;;;14.27;4.50;;;;;;;;;;6217641;23;19996;-74
2022/02/13 02:47:03;;;;;;;10.63;4.63;;;;;;;;;;6244995;23;20084;-73
2022/02/13 02:49:28;;;;;;;8.90;4.35;;;;;;;;;;6244858;23;20425;-73
2022/02/13 02:51:54;;;;;;;8.75;4.03;;;;;;;;;;6244647;23;20004;-74
2022/02/13 02:54:19;;;;;;;8.44;3.80;;;;;;;;;;6244955;23;20007;-74
2022/02/13 02:56:44;;;;;;;10.48;3.80;;;;;;;;;;6244907;23;20071;-74
2022/02/13 02:59:09;;;;;;;7.95;4.10;;;;;;;;;;6244761;23;20138;-74
2022/02/13 03:01:34;;;;;;;7.85;3.78;;;;;;;;;;6244796;23;20008;-73
2022/02/13 03:04:00;;;;;;;12.80;3.88;;;;;;;;;;6245243;23;20084;-73
2022/02/13 03:06:25;;;;;;;8.93;3.67;;;;;;;;;;6246693;23;20417;-73
2022/02/13 03:08:50;;;;;;;8.38;4.43;;;;;;;;;;6246211;23;20491;-73
2022/02/13 03:11:15;;;;;;;8.48;4.10;;;;;;;;;;6245010;23;19996;-73
2022/02/13 03:13:41;;;;;;;8.80;3.70;;;;;;;;;;6244721;23;20440;-74
2022/02/13 03:16:06;;;;;;;8.57;3.72;;;;;;;;;;6245150;23;20004;-73
2022/02/13 03:18:31;;;;;;;6.60;3.53;;;;;;;;;;6245047;23;20000;-73
2022/02/13 03:20:58;;;;;;;7.35;3.38;;;;;;;;;;6244708;23;20413;-74
2022/02/13 03:23:23;;;;;;;8.50;3.55;;;;;;;;;;6244551;23;19996;-74
2022/02/13 03:25:49;;;;;;;6.68;3.35;;;;;;;;;;6217676;23;20071;-74
2022/02/13 03:28:14;;;;;;;6.68;3.42;;;;;;;;;;6192546;23;20432;-74
2022/02/13 03:30:40;;;;;;;8.25;3.50;;;;;;;;;;6218125;23;20007;-74
2022/02/13 03:33:05;;;;;;;9.30;3.50;;;;;;;;;;6244376;23;20075;-73
2022/02/13 03:35:31;;;;;;;9.02;3.63;;;;;;;;;;6217522;23;20418;-74
2022/02/13 03:37:56;;;;;;;9.10;4.00;;;;;;;;;;6217680;23;20024;-74
2022/02/13 03:40:21;;;;;;;8.65;3.80;;;;;;;;;;6244722;23;20003;-74
2022/02/13 03:42:47;;;;;;;9.05;3.47;;;;;;;;;;6244439;23;20413;-72
2022/02/13 03:45:12;;;;;;;7.00;3.28;;;;;;;;;;6244552;23;20001;-74
2022/02/13 03:47:39;;;;;;;10.32;3.28;;;;;;;;;;6244497;23;20007;-73
2022/02/13 03:50:04;;;;;;;8.30;3.42;;;;;;;;;;6244058;23;20004;-74
2022/02/13 03:52:29;;;;;;;6.05;3.38;;;;;;;;;;6244316;23;20004;-73
2022/02/13 03:54:55;;;;;;;7.70;3.40;;;;;;;;;;6244400;23;20000;-73
2022/02/13 03:57:20;;;;;;;6.53;3.88;;;;;;;;;;6244241;23;20003;-73
2022/02/13 03:59:45;;;;;;;7.57;3.38;;;;;;;;;;6244346;23;20501;-73
2022/02/13 04:02:10;;;;;;;11.27;3.60;;;;;;;;;;6244131;23;19996;-73
2022/02/13 04:04:36;;;;;;;9.27;3.92;;;;;;;;;;6244387;23;20035;-73
2022/02/13 04:07:01;;;;;;;9.23;3.53;;;;;;;;;;6244500;23;20436;-73
2022/02/13 04:09:26;;;;;;;9.05;3.80;;;;;;;;;;6245443;23;20050;-73
2022/02/13 04:11:51;;;;;;;9.02;3.30;;;;;;;;;;6245534;23;20430;-73
2022/02/13 04:14:16;;;;;;;9.15;3.67;;;;;;;;;;6245255;23;20004;-72
2022/02/13 04:16:41;;;;;;;7.97;3.33;;;;;;;;;;6244546;23;20028;-73
2022/02/13 04:19:07;;;;;;;7.85;3.50;;;;;;;;;;6244156;23;20026;-73
2022/02/13 04:21:32;;;;;;;10.38;3.70;;;;;;;;;;6217275;23;20003;-73
2022/02/13 04:23:57;;;;;;;7.80;3.42;;;;;;;;;;6244153;23;19992;-73
2022/02/13 04:26:22;;;;;;;7.78;3.14;;;;;;;;;;6244317;23;19996;-74
2022/02/13 04:28:48;;;;;;;7.03;3.15;;;;;;;;;;6217394;23;20000;-73
2022/02/13 04:31:13;;;;;;;8.35;3.78;;;;;;;;;;6244262;23;20188;-73
2022/02/13 04:33:38;;;;;;;6.72;3.40;;;;;;;;;;6243977;23;20000;-73
2022/02/13 04:36:04;;;;;;;8.77;3.17;;;;;;;;;;6244359;23;20011;-73
2022/02/13 04:38:29;;;;;;;7.45;3.10;;;;;;;;;;6244098;23;20004;-73
2022/02/13 04:40:54;;;;;;;7.18;3.40;;;;;;;;;;6217209;23;20000;-73
2022/02/13 04:43:19;;;;;;;12.23;3.50;;;;;;;;;;6244101;23;19996;-73
2022/02/13 04:45:44;;;;;;;7.70;3.13;;;;;;;;;;6244138;23;20421;-74
2022/02/13 04:48:09;;;;;;;7.07;3.00;;;;;;;;;;6244239;23;20004;-73
2022/02/13 04:50:35;;;;;;;11.27;3.45;;;;;;;;;;6236518;22;20020;-78
2022/02/13 04:53:03;;;;;;;6.60;3.17;;;;;;;;;;6216532;23;20488;-79
2022/02/13 04:55:28;;;;;;;10.13;3.20;;;;;;;;;;6215342;23;19997;-77
2022/02/13 04:57:53;;;;;;;8.27;3.22;;;;;;;;;;6214808;23;20422;-78
2022/02/13 05:00:19;;;;;;;6.13;3.33;;;;;;;;;;6213183;23;20000;-77
2022/02/13 05:02:44;;;;;;;6.65;3.15;;;;;;;;;;6215606;23;19997;-77
2022/02/13 05:05:09;;;;;;;8.05;3.28;;;;;;;;;;6216039;23;19997;-78
2022/02/13 05:07:35;;;;;;;15.68;4.45;;;;;;;;;;6215550;23;20032;-77
2022/02/13 05:10:00;;;;;;;6.40;3.65;;;;;;;;;;6218781;23;19997;-77
2022/02/13 05:12:26;;;;;;;7.07;3.33;;;;;;;;;;6218996;23;20019;-76
2022/02/13 05:14:52;;;;;;;6.50;3.13;;;;;;;;;;6219025;23;19996;-76
2022/02/13 05:17:17;;;;;;;9.68;3.53;;;;;;;;;;6218224;23;20415;-75
2022/02/13 05:19:42;;;;;;;8.00;3.13;;;;;;;;;;6216995;23;20072;-75
2022/02/13 05:22:07;;;;;;;7.43;3.30;;;;;;;;;;6217186;23;20055;-76
2022/02/13 05:24:36;;;;;;;9.68;3.13;;;;;;;;;;6216505;23;20378;-75
2022/02/13 05:27:02;;;;;;;7.43;3.20;;;;;;;;;;6216001;23;20059;-76
2022/02/13 05:29:27;;;;;;;5.97;3.07;;;;;;;;;;6215878;23;20020;-75
2022/02/13 05:31:52;;;;;;;8.80;3.33;;;;;;;;;;6215419;23;20537;-76
2022/02/13 05:34:17;;;;;;;10.57;3.37;;;;;;;;;;6215656;23;20080;-76
2022/02/13 05:36:43;;;;;;;6.77;3.53;;;;;;;;;;6214306;23;20007;-76
2022/02/13 05:39:08;;;;;;;7.47;3.35;;;;;;;;;;6213871;23;20023;-75
2022/02/13 05:41:33;;;;;;;7.07;3.17;;;;;;;;;;6215497;23;20025;-76
2022/02/13 05:43:58;;;;;;;7.50;3.40;;;;;;;;;;6215351;23;20050;-77
2022/02/13 05:46:25;;;;;;;6.47;3.45;;;;;;;;;;6214274;23;20452;-76
2022/02/13 05:48:50;;;;;;;8.13;3.40;;;;;;;;;;6215826;23;20012;-76
2022/02/13 05:51:15;;;;;;;10.32;3.17;;;;;;;;;;6217424;23;20009;-77
2022/02/13 05:53:41;;;;;;;5.72;3.20;;;;;;;;;;6190407;23;20039;-77
2022/02/13 05:56:07;;;;;;;7.70;3.43;;;;;;;;;;6216796;23;19997;-76
2022/02/13 05:58:36;;;;;;;9.07;3.55;;;;;;;;;;6215738;23;20430;-75
2022/02/13 06:01:01;;;;;;;;;;;;;;;;;;6217232;23;20000;-75
2022/02/13 06:03:26;;;;;;;11.03;3.50;;;;;;;;;;6215994;23;19900;-75
2022/02/13 06:05:51;;;;;;;8.10;3.15;;;;;;;;;;6216023;23;20216;-76
2022/02/13 06:08:16;;;;;;;9.40;3.60;;;;;;;;;;6216085;23;20421;-76
2022/02/13 06:10:42;;;;;;;7.93;3.95;;;;;;;;;;6216659;23;20019;-77
2022/02/13 06:13:07;;;;;;;8.00;2.90;;;;;;;;;;6189536;23;20000;-75
2022/02/13 06:15:32;;;;;;;7.88;3.20;;;;;;;;;;6190247;23;19996;-76
2022/02/13 06:17:57;;;;;;;6.55;3.50;;;;;;;;;;6218286;23;20071;-76
2022/02/13 06:20:22;;;;;;;7.23;3.37;;;;;;;;;;6216989;23;19998;-75
2022/02/13 06:22:48;;;;;;;9.53;3.47;;;;;;;;;;6215610;23;19989;-76
2022/02/13 06:25:13;;;;;;;11.70;3.75;;;;;;;;;;6216681;23;20019;-76
2022/02/13 06:27:38;;;;;;;7.05;3.67;;;;;;;;;;6216278;23;20427;-76
2022/02/13 06:30:03;;;;;;;6.97;3.70;;;;;;;;;;6216148;23;20012;-76
2022/02/13 06:32:29;;;;;;;6.03;3.28;;;;;;;;;;6214608;23;20004;-77
2022/02/13 06:34:54;;;;;;;7.70;3.63;;;;;;;;;;6188666;23;20497;-75
2022/02/13 06:37:19;;;;;;;8.45;3.42;;;;;;;;;;6215084;23;20054;-76
2022/02/13 06:39:44;;;;;;;7.28;3.60;;;;;;;;;;6214912;23;20430;-75
2022/02/13 06:42:09;;;;;;;9.48;4.78;;;;;;;;;;6215095;23;20115;-76
2022/02/13 06:44:37;;;;;;;9.60;3.97;;;;;;;;;;6188896;23;20445;-76
2022/02/13 06:47:03;;;;;;;6.95;3.63;;;;;;;;;;6189607;23;19997;-78
2022/02/13 06:49:28;;;;;;;6.93;3.67;;;;;;;;;;6215721;23;20051;-75
2022/02/13 06:51:53;;;;;;;7.55;3.67;;;;;;;;;;6214778;23;20016;-77
2022/02/13 06:54:19;;;;;;;8.75;3.78;;;;;;;;;;6216441;23;20434;-76
2022/02/13 06:56:44;;;;;;;12.85;5.18;;;;;;;;;;6216532;23;20012;-77
2022/02/13 06:59:09;;;;;;;11.60;4.95;;;;;;;;;;6215674;23;19992;-75
2022/02/13 07:01:34;;;;;;;8.52;4.28;;;;;;;;;;6214876;23;20005;-75
2022/02/13 07:03:59;;;;;;;9.27;3.80;;;;;;;;;;6216036;23;19996;-76
2022/02/13 07:06:25;;;;;;;7.13;3.55;;;;;;;;;;6214974;23;20106;-75
2022/02/13 07:08:50;;;;;;;9.75;3.55;;;;;;;;;;6215355;23;20028;-76
2022/02/13 07:11:15;;;;;;;10.05;3.38;;;;;;;;;;6214791;23;20426;-76
2022/02/13 07:13:40;;;;;;;9.13;4.25;;;;;;;;;;6212892;23;20373;-75
2022/02/13 07:16:06;;;;;;;8.38;3.83;;;;;;;;;;6214885;23;20001;-75
2022/02/13 07:18:32;;;;;;;8.07;3.47;;;;;;;;;;6215138;23;20024;-74
2022/02/13 07:20:57;;;;;;;7.40;3.45;;;;;;;;;;6216631;23;20011;-75
2022/02/13 07:23:22;;;;;;;9.70;3.83;;;;;;;;;;6215174;23;19996;-74
2022/02/13 07:25:48;;;;;;;7.72;3.75;;;;;;;;;;6215062;23;20000;-76
2022/02/13 07:30:57;;;;;;;7.05;3.80;;;;;;;;;;6215786;23;20011;-75
2022/02/13 07:33:23;;;;;;;9.50;4.67;;;;;;;;;;6215740;23;20032;-75
2022/02/13 07:35:48;;;;;;;12.17;4.30;;;;;;;;;;6189542;23;19997;-74
2022/02/13 07:38:13;;;;;;;11.07;3.93;;;;;;;;;;6215360;23;20051;-75
2022/02/13 07:40:38;;;;;;;12.37;3.43;;;;;;;;;;6188221;23;20461;-78
2022/02/13 07:43:04;;;;;;;8.03;3.87;;;;;;;;;;6214471;23;19996;-77
2022/02/13 07:45:29;;;;;;;10.17;3.83;;;;;;;;;;6214620;23;20001;-77
2022/02/13 07:47:54;;;;;;;10.17;4.07;;;;;;;;;;6216184;23;19997;-75
2022/02/13 07:50:19;;;;;;;9.68;4.14;;;;;;;;;;6214210;23;20074;-75
2022/02/13 07:52:45;;;;;;;9.55;3.58;;;;;;;;;;6213915;23;20010;-76
2022/02/13 07:55:12;;;;;;;9.05;4.03;;;;;;;;;;6214339;23;20079;-76
2022/02/13 07:57:37;;;;;;;11.77;3.80;;;;;;;;;;6214256;23;19997;-76
2022/02/13 08:00:03;;;;;;;9.35;4.05;;;;;;;;;;6214421;23;20075;-78
2022/02/13 08:02:28;;;;;;;6.90;3.28;;;;;;;;;;6214287;23;19993;-76
2022/02/13 08:04:53;;;;;;;8.80;3.78;;;;;;;;;;6214590;23;20325;-77
2022/02/13 08:07:18;;;;;;;8.65;4.22;;;;;;;;;;6214503;23;20051;-76
2022/02/13 08:09:44;;;;;;;12.90;4.32;;;;;;;;;;6214430;23;20027;-76
2022/02/13 08:12:09;;;;;;;9.05;4.40;;;;;;;;;;6214554;23;19993;-75
2022/02/13 08:14:35;;;;;;;9.05;3.67;;;;;;;;;;6214612;23;20068;-75
2022/02/13 08:17:00;;;;;;;7.53;4.05;;;;;;;;;;6214409;23;20494;-75
2022/02/13 08:19:25;;;;;;;10.43;4.07;;;;;;;;;;6214873;23;20023;-74
2022/02/13 08:21:50;;;;;;;9.35;4.30;;;;;;;;;;6214787;23;20035;-76
2022/02/13 08:24:16;;;;;;;10.23;3.75;;;;;;;;;;6215481;23;19996;-76
2022/02/13 08:26:41;;;;;;;8.57;3.88;;;;;;;;;;6215110;23;20004;-76
2022/02/13 08:29:06;;;;;;;8.57;3.55;;;;;;;;;;6215216;23;20008;-76
2022/02/13 08:31:32;;;;;;;10.52;3.65;;;;;;;;;;6214927;23;20327;-75
2022/02/13 08:33:57;;;;;;;7.60;4.20;;;;;;;;;;6213654;23;19996;-75
2022/02/13 08:36:23;;;;;;;6.45;3.47;;;;;;;;;;6214879;23;20330;-75
2022/02/13 08:38:49;;;;;;;8.55;4.15;;;;;;;;;;6188515;23;20330;-77
2022/02/13 08:41:14;;;;;;;9.77;5.43;;;;;;;;;;6215697;23;19992;-76
2022/02/13 08:43:40;;;;;;;9.40;3.88;;;;;;;;;;6216061;23;19993;-76
2022/02/13 08:46:05;;;;;;;9.48;4.50;;;;;;;;;;6190979;23;20080;-76
2022/02/13 08:48:31;;;;;;;7.03;3.92;;;;;;;;;;6216836;23;20481;-76
2022/02/13 08:50:56;;;;;;;10.30;4.35;;;;;;;;;;6216297;23;20011;-75
2022/02/13 08:53:21;;;;;;;6.85;3.88;;;;;;;;;;6215846;23;20001;-75
2022/02/13 08:55:46;;;;;;;10.63;3.70;;;;;;;;;;6215785;23;20477;-75
2022/02/13 08:58:12;;;;;;;8.57;3.80;;;;;;;;;;6215846;23;20422;-75
2022/02/13 09:00:37;;;;;;;9.20;3.70;;;;;;;;;;6215859;23;20019;-76
2022/02/13 09:03:03;;;;;;;7.60;4.05;;;;;;;;;;6215848;23;20486;-75
2022/02/13 09:05:28;;;;;;;6.43;3.78;;;;;;;;;;6215698;23;20426;-76
2022/02/13 09:07:53;;;;;;;7.50;3.47;;;;;;;;;;6216228;23;20105;-75
2022/02/13 09:10:18;;;;;;;7.78;2.95;;;;;;;;;;6216322;23;20070;-74
2022/02/13 09:12:44;;;;;;;10.48;4.25;;;;;;;;;;6215879;23;20423;-75
2022/02/13 09:15:10;;;;;;;8.88;3.80;;;;;;;;;;6216810;23;20001;-75
2022/02/13 09:17:35;;;;;;;11.75;4.07;;;;;;;;;;6216179;23;20032;-75
2022/02/13 09:20:01;;;;;;;8.75;3.70;;;;;;;;;;6216354;23;20432;-75
2022/02/13 09:22:27;;;;;;;8.43;4.25;;;;;;;;;;6216323;23;19993;-75
2022/02/13 09:24:52;;;;;;;9.10;3.95;;;;;;;;;;6216747;23;20019;-74
2022/02/13 09:27:18;;;;;;;6.28;3.00;;;;;;;;;;6217393;23;20334;-75
2022/02/13 09:29:44;;;;;;;12.70;4.30;;;;;;;;;;6217211;23;20000;-75
2022/02/13 09:32:09;;;;;;;9.52;4.13;;;;;;;;;;6216728;23;20007;-75
2022/02/13 09:34:34;;;;;;;11.15;4.85;;;;;;;;;;6217103;23;20185;-74
2022/02/13 09:37:00;;;;;;;9.70;3.72;;;;;;;;;;6217427;23;19997;-75
2022/02/13 09:39:25;;;;;;;10.13;5.00;;;;;;;;;;6190127;23;20011;-75
2022/02/13 09:41:51;;;;;;;11.32;5.40;;;;;;;;;;6217071;23;20003;-75
2022/02/13 09:44:17;;;;;;;11.10;4.85;;;;;;;;;;6217314;23;20000;-76
2022/02/13 09:46:43;;;;;;;8.00;3.95;;;;;;;;;;6217075;23;20016;-75
2022/02/13 09:49:08;;;;;;;7.45;3.78;;;;;;;;;;6216828;23;20000;-75
2022/02/13 09:51:34;;;;;;;7.75;3.70;;;;;;;;;;6216811;23;20008;-75
2022/02/13 09:53:59;;;;;;;6.80;3.72;;;;;;;;;;6217114;23;20051;-75
2022/02/13 09:56:25;;;;;;;10.88;5.18;;;;;;;;;;6190342;23;20426;-75
2022/02/13 09:58:50;;;;;;;8.55;3.65;;;;;;;;;;6218576;23;20000;-75
2022/02/13 10:01:15;;;;;;;12.68;3.38;;;;;;;;;;6218975;23;20062;-76
2022/02/13 10:03:42;;;;;;;7.95;3.45;;;;;;;;;;6220620;23;20167;-76
2022/02/13 10:06:13;;;;;;;7.90;3.60;;;;;;;;;;6216496;23;19993;-76
2022/02/13 10:08:43;;;;;;;8.10;3.55;;;;;;;;;;6216630;23;20027;-75
2022/02/13 10:11:09;;;;;;;10.00;3.78;;;;;;;;;;6191579;23;20370;-75
2022/02/13 10:13:42;;;;;;;7.30;3.78;;;;;;;;;;6216021;23;20058;-75
2022/02/13 10:16:11;;;;;;;9.20;3.50;;;;;;;;;;6217646;23;20080;-75
2022/02/13 10:18:36;;;;;;;;;;;;;;;;;;6218950;23;20445;-76
2022/02/13 10:21:02;;;;;;;5.70;3.03;;;;;;;;;;6191064;23;20310;-76
2022/02/13 10:23:27;;;;;;;8.98;3.58;;;;;;;;;;6217322;23;20206;-75
2022/02/13 10:25:52;;;;;;;10.38;4.07;;;;;;;;;;6190819;23;20071;-75
2022/02/13 10:28:18;;;;;;;10.63;3.42;;;;;;;;;;6216191;23;19993;-74
2022/02/13 10:30:45;;;;;;;5.75;3.10;;;;;;;;;;6214510;23;20001;-75
2022/02/13 10:33:14;;;;;;;6.93;3.00;;;;;;;;;;6188128;23;20107;-74
2022/02/13 10:35:39;;;;;;;12.77;3.22;;;;;;;;;;6215447;23;20082;-75
2022/02/13 10:38:04;;;;;;;9.00;4.28;;;;;;;;;;6215447;23;20009;-74
2022/02/13 10:40:31;;;;;;;6.57;3.20;;;;;;;;;;6215649;23;20304;-74
2022/02/13 10:43:09;;;;;;;7.75;3.10;;;;;;;;;;6216180;23;20004;-75
2022/02/13 10:45:38;;;;;;;6.03;3.10;;;;;;;;;;6215973;23;20020;-75
2022/02/13 10:48:04;;;;;;;;;;;;;;;;;;6189093;23;20008;-74
2022/02/13 10:50:30;;;;;;;6.85;3.40;;;;;;;;;;6188166;23;19900;-75
2022/02/13 10:52:59;;;;;;;8.23;3.28;;;;;;;;;;6214715;23;20004;-76
2022/02/13 10:55:25;;;;;;;8.05;3.75;;;;;;;;;;6214002;23;20084;-77
2022/02/13 10:57:51;;;;;;;6.88;3.10;;;;;;;;;;6212850;23;20028;-75
2022/02/13 11:00:16;;;;;;;11.45;3.72;;;;;;;;;;6213697;23;20012;-76
2022/02/13 11:02:45;;;;;;;7.72;3.65;;;;;;;;;;6213513;23;20435;-76
2022/02/13 11:05:11;;;;;;;9.63;3.42;;;;;;;;;;6213081;23;19996;-75
2022/02/13 11:07:47;;;;;;;10.30;3.63;;;;;;;;;;6186433;23;20446;-75
2022/02/13 11:10:15;;;;;;;11.27;3.35;;;;;;;;;;6213562;23;20031;-75
2022/02/13 11:12:42;;;;;;;7.18;3.20;;;;;;;;;;6214554;23;19993;-76
2022/02/13 11:15:15;;;;;;;6.55;3.53;;;;;;;;;;6214917;23;19996;-75
2022/02/13 11:17:41;;;;;;;7.90;3.47;;;;;;;;;;6215398;23;19997;-75
2022/02/13 11:20:07;;;;;;;5.95;3.10;;;;;;;;;;6216095;23;20498;-75
2022/02/13 11:22:35;;;;;;;14.18;4.05;;;;;;;;;;6215575;23;19996;-76
2022/02/13 11:25:00;;;;;;;9.88;3.53;;;;;;;;;;6189234;23;20050;-76
2022/02/13 11:27:26;;;;;;;10.57;3.70;;;;;;;;;;6215291;23;20024;-75
2022/02/13 11:30:01;;;;;;;7.20;3.55;;;;;;;;;;6215375;23;20094;-75
2022/02/13 11:32:37;;;;;;;10.50;3.67;;;;;;;;;;6215646;23;19993;-75
2022/02/13 11:35:07;;;;;;;8.73;3.30;;;;;;;;;;6188504;23;20043;-76
2022/02/13 11:37:43;;;;;;;9.18;3.63;;;;;;;;;;6214648;23;20334;-76
2022/02/13 11:40:28;;;;;;;8.77;3.53;;;;;;;;;;6217742;23;19993;-75
2022/02/13 11:42:53;;;;;;;5.47;2.47;;;;;;;;;;6219107;23;19997;-74
2022/02/13 11:45:19;;;;;;;7.10;2.97;;;;;;;;;;6190935;23;20442;-75
2022/02/13 11:47:46;;;;;;;8.40;2.90;;;;;;;;;;6218822;23;20326;-74
2022/02/13 11:50:15;;;;;;;6.53;2.83;;;;;;;;;;6219010;23;20021;-75
2022/02/13 11:53:01;;;;;;;5.13;2.85;;;;;;;;;;6190018;23;20501;-75
2022/02/13 11:55:27;;;;;;;7.25;2.67;;;;;;;;;;6215105;23;20005;-76
2022/02/13 11:57:56;;;;;;;6.45;3.17;;;;;;;;;;6189351;23;20087;-75
2022/02/13 12:00:34;;;;;;;8.13;2.90;;;;;;;;;;6215418;23;20012;-76
2022/02/13 12:03:10;;;;;;;8.50;3.13;;;;;;;;;;6215876;23;19997;-75
2022/02/13 12:05:37;;;;;;;12.93;3.40;;;;;;;;;;6216183;23;20020;-76
2022/02/13 12:08:03;;;;;;;7.20;2.47;;;;;;;;;;6215578;23;20001;-77
2022/02/13 12:10:36;;;;;;;12.05;3.83;;;;;;;;;;6188593;23;20007;-75
2022/02/13 12:13:04;;;;;;;7.45;2.72;;;;;;;;;;6187589;23;20000;-76
2022/02/13 12:15:31;;;;;;;6.10;2.95;;;;;;;;;;6213682;23;20027;-76
2022/02/13 12:18:09;;;;;;;5.03;2.38;;;;;;;;;;6189664;23;20083;-75
2022/02/13 12:20:35;;;;;;;;;;;;;;;;;;6217471;23;20059;-74
2022/02/13 12:23:04;;;;;;;8.95;2.90;;;;;;;;;;6217082;23;20233;-75
2022/02/13 12:25:31;;;;;;;11.30;3.30;;;;;;;;;;6217363;23;20454;-76
2022/02/13 12:27:57;;;;;;;7.15;2.50;;;;;;;;;;6217440;23;20054;-74
2022/02/13 12:30:22;;;;;;;9.55;4.32;;;;;;;;;;6190548;23;20391;-74
2022/02/13 12:32:47;;;;;;;7.03;2.97;;;;;;;;;;6216165;23;20079;-76
2022/02/13 12:35:15;;;;;;;8.95;2.55;;;;;;;;;;6216789;23;20051;-75
2022/02/13 12:37:40;;;;;;;6.03;2.37;;;;;;;;;;6216647;23;19996;-76
2022/02/13 12:40:11;;;;;;;6.28;2.78;;;;;;;;;;6216834;23;20376;-74
2022/02/13 12:42:39;;;;;;;4.65;2.22;;;;;;;;;;6216662;23;20071;-75
2022/02/13 12:45:08;;;;;;;6.88;2.58;;;;;;;;;;6217479;23;20418;-74
2022/02/13 12:47:35;;;;;;;6.63;2.75;;;;;;;;;;6216972;23;19993;-76
2022/02/13 12:50:02;;;;;;;6.15;2.60;;;;;;;;;;6216527;23;20003;-74
2022/02/13 12:52:29;;;;;;;7.57;2.80;;;;;;;;;;6215167;23;20011;-75
2022/02/13 12:54:54;;;;;;;10.05;2.53;;;;;;;;;;6189024;23;20381;-75
2022/02/13 12:57:22;;;;;;;8.47;2.80;;;;;;;;;;6215471;23;20012;-76
2022/02/13 12:59:47;;;;;;;4.88;2.38;;;;;;;;;;6215716;23;20241;-75
2022/02/13 13:02:17;;;;;;;7.97;2.55;;;;;;;;;;6188651;23;20000;-76
2022/02/13 13:04:42;;;;;;;9.07;2.30;;;;;;;;;;6216424;23;20020;-75
2022/02/13 13:07:16;;;;;;;6.13;2.67;;;;;;;;;;6216103;23;20484;-74
2022/02/13 13:09:42;;;;;;;6.00;2.25;;;;;;;;;;6216109;23;19996;-74
2022/02/13 13:12:25;;;;;;;5.85;2.67;;;;;;;;;;6214843;23;20035;-74
2022/02/13 13:14:55;;;;;;;5.70;2.30;;;;;;;;;;6216065;23;20008;-75
2022/02/13 13:17:20;;;;;;;9.93;2.38;;;;;;;;;;6216016;23;20000;-75
2022/02/13 13:19:46;;;;;;;6.88;2.97;;;;;;;;;;6215835;23;20142;-75
2022/02/13 13:22:21;;;;;;;7.22;2.38;;;;;;;;;;6215691;23;20005;-77
2022/02/13 13:24:47;;;;;;;4.95;2.40;;;;;;;;;;6215727;23;20001;-75
2022/02/13 13:27:24;;;;;;;6.40;2.15;;;;;;;;;;6216894;23;20000;-75
2022/02/13 13:29:49;;;;;;;7.45;2.50;;;;;;;;;;6215971;23;20001;-75
2022/02/13 13:32:19;;;;;;;11.05;3.28;;;;;;;;;;6215045;23;20473;-75
2022/02/13 13:34:44;;;;;;;7.47;2.60;;;;;;;;;;6215952;23;20042;-76
2022/02/13 13:37:22;;;;;;;9.02;2.80;;;;;;;;;;6215600;23;20033;-75
2022/02/13 13:40:09;;;;;;;9.18;2.28;;;;;;;;;;6215892;23;20234;-75
2022/02/13 13:42:41;;;;;;;4.35;1.92;;;;;;;;;;6214113;23;20024;-76
2022/02/13 13:45:06;;;;;;;8.55;2.47;;;;;;;;;;6216677;23;20003;-76
2022/02/13 13:47:32;;;;;;;4.43;2.35;;;;;;;;;;6217063;23;20055;-75
2022/02/13 13:49:57;;;;;;;12.15;2.85;;;;;;;;;;6217191;23;20418;-75
2022/02/13 13:52:22;;;;;;;4.50;2.22;;;;;;;;;;6217467;23;20023;-75
2022/02/13 13:54:48;;;;;;;8.18;2.47;;;;;;;;;;6220705;23;19996;-76
2022/02/13 13:57:13;;;;;;;11.15;3.00;;;;;;;;;;6226105;23;20040;-76
2022/02/13 13:59:38;;;;;;;9.67;4.20;;;;;;;;;;6229018;23;20008;-75
2022/02/13 14:02:14;;;;;;;7.75;2.75;;;;;;;;;;6226690;23;20218;-74
2022/02/13 14:04:39;;;;;;;6.68;2.72;;;;;;;;;;6229847;23;19997;-75
2022/02/13 14:07:04;;;;;;;7.07;2.50;;;;;;;;;;6227825;23;20053;-75
2022/02/13 14:09:29;;;;;;;7.47;2.72;;;;;;;;;;6225354;23;20274;-75
2022/02/13 14:11:54;;;;;;;8.25;2.70;;;;;;;;;;6223809;23;20218;-76
2022/02/13 14:14:20;;;;;;;6.10;2.60;;;;;;;;;;6236579;23;19997;-76
2022/02/13 14:16:45;;;;;;;9.25;2.42;;;;;;;;;;6230090;23;20295;-74
2022/02/13 14:19:10;;;;;;;6.75;3.15;;;;;;;;;;6225065;23;20234;-75
2022/02/13 14:21:35;;;;;;;7.13;2.85;;;;;;;;;;6220944;23;20000;-76
2022/02/13 14:24:00;;;;;;;11.45;2.65;;;;;;;;;;6219457;23;20000;-75
2022/02/13 14:26:26;;;;;;;7.90;2.80;;;;;;;;;;6221083;23;20000;-75
2022/02/13 14:28:51;;;;;;;9.95;3.17;;;;;;;;;;6218508;23;20023;-76
2022/02/13 14:31:16;;;;;;;8.00;2.58;;;;;;;;;;6214982;23;20032;-74
2022/02/13 14:33:41;;;;;;;7.28;3.42;;;;;;;;;;6214813;23;20000;-76
2022/02/13 14:36:07;;;;;;;7.18;3.75;;;;;;;;;;6214701;23;20418;-74
2022/02/13 14:38:32;;;;;;;11.35;3.63;;;;;;;;;;6214865;23;20005;-74